createdAt,value
2023-03-17T00:01:36.514Z,101201.22
2023-03-17T00:04:03.160Z,101203.66
2023-03-17T00:06:31.483Z,101200.47
2023-03-17T00:08:58.319Z,101203.72
2023-03-17T00:11:26.697Z,101205.09
2023-03-17T00:13:54.604Z,101196.88
2023-03-17T00:16:27.231Z,101202.31
2023-03-17T00:18:55.513Z,101194.19
2023-03-17T00:21:27.290Z,101194.94
2023-03-17T00:23:54.907Z,101191.81
2023-03-17T00:26:21.785Z,101173.16
2023-03-17T00:28:49.132Z,101176.03
2023-03-17T00:31:20.715Z,101178.50
2023-03-17T00:33:48.804Z,101176.03
2023-03-17T00:36:18.726Z,101178.56
2023-03-17T00:38:46.177Z,101167.25
2023-03-17T00:41:13.519Z,101162.53
2023-03-17T00:43:40.843Z,101160.44
2023-03-17T00:46:16.619Z,101164.22
2023-03-17T00:48:45.173Z,101150.16
2023-03-17T00:51:13.068Z,101144.44
2023-03-17T00:53:39.937Z,101134.72
2023-03-17T00:56:14.621Z,101129.78
2023-03-17T00:58:42.105Z,101122.09
2023-03-17T01:01:09.772Z,101124.47
2023-03-17T01:03:36.736Z,101120.59
2023-03-17T01:06:06.600Z,101127.28
2023-03-17T01:08:33.868Z,101122.16
2023-03-17T01:11:00.598Z,101114.34
2023-03-17T01:13:27.611Z,101112.78
2023-03-17T01:15:55.763Z,101123.44
2023-03-17T01:18:23.118Z,101121.59
2023-03-17T01:20:50.938Z,101120.69
2023-03-17T01:23:17.896Z,101125.59
2023-03-17T01:25:45.539Z,101116.78
2023-03-17T01:28:18.130Z,101122.97
2023-03-17T01:30:45.306Z,101117.63
2023-03-17T01:33:13.144Z,101104.53
2023-03-17T01:35:41.394Z,101092.13
2023-03-17T01:38:08.667Z,101093.88
2023-03-17T01:40:42.572Z,101093.47
2023-03-17T01:43:09.112Z,101087.94
2023-03-17T01:46:13.125Z,101068.38
2023-03-17T01:48:58.725Z,101076.75
2023-03-17T01:51:34.386Z,101077.84
2023-03-17T01:54:05.329Z,101075.63
2023-03-17T01:56:32.750Z,101069.59
2023-03-17T01:59:02.804Z,101074.34
2023-03-17T02:01:37.410Z,101065.44
2023-03-17T02:04:05.028Z,101064.44
2023-03-17T02:06:32.467Z,101064.94
2023-03-17T02:09:00.231Z,101058.31
2023-03-17T02:11:27.230Z,101055.66
2023-03-17T02:13:54.114Z,101057.88
2023-03-17T02:16:21.403Z,101050.00
2023-03-17T02:18:48.012Z,101042.53
2023-03-17T02:21:39.439Z,101053.34
2023-03-17T02:24:12.679Z,101059.59
2023-03-17T02:26:39.563Z,101050.25
2023-03-17T02:29:06.619Z,101048.25
2023-03-17T02:31:34.799Z,101040.66
2023-03-17T02:34:01.812Z,101050.00
2023-03-17T02:36:28.937Z,101042.59
2023-03-17T02:38:57.881Z,101038.63
2023-03-17T02:41:24.926Z,101039.47
2023-03-17T02:43:52.244Z,101031.47
2023-03-17T02:46:18.979Z,101036.59
2023-03-17T02:48:46.473Z,101028.47
2023-03-17T02:51:13.256Z,101026.13
2023-03-17T02:53:40.111Z,101027.31
2023-03-17T02:56:07.332Z,101039.88
2023-03-17T02:58:33.930Z,101032.34
2023-03-17T03:01:00.563Z,101025.78
2023-03-17T03:03:27.537Z,101023.97
2023-03-17T03:05:54.162Z,101025.84
2023-03-17T03:08:22.107Z,101035.09
2023-03-17T03:10:48.687Z,101035.56
2023-03-17T03:13:15.434Z,101034.03
2023-03-17T03:15:43.147Z,101034.53
2023-03-17T03:18:10.054Z,101042.81
2023-03-17T03:20:36.703Z,101059.19
2023-03-17T03:23:03.954Z,101060.16
2023-03-17T03:25:30.563Z,101056.69
2023-03-17T03:27:57.155Z,101049.56
2023-03-17T03:30:23.792Z,101050.25
2023-03-17T03:32:50.389Z,101044.47
2023-03-17T03:35:17.097Z,101038.34
2023-03-17T03:37:43.665Z,101038.19
2023-03-17T03:40:10.974Z,101035.47
2023-03-17T03:42:37.515Z,101043.66
2023-03-17T03:45:05.118Z,101047.16
2023-03-17T03:47:31.710Z,101051.59
2023-03-17T03:49:58.281Z,101042.34
2023-03-17T03:52:24.908Z,101036.94
2023-03-17T03:54:51.476Z,101042.94
2023-03-17T03:57:18.094Z,101037.56
2023-03-17T03:59:44.660Z,101038.50
2023-03-17T04:02:11.631Z,101031.84
2023-03-17T04:04:38.614Z,101040.19
2023-03-17T04:07:05.870Z,101038.72
2023-03-17T04:09:32.670Z,101029.13
2023-03-17T04:11:59.269Z,101023.59
2023-03-17T04:14:25.877Z,101024.38
2023-03-17T04:16:52.475Z,101021.09
2023-03-17T04:19:19.069Z,101015.16
2023-03-17T04:21:45.679Z,101013.38
2023-03-17T04:24:12.535Z,101007.13
2023-03-17T04:26:39.543Z,101009.16
2023-03-17T04:29:08.100Z,101012.03
2023-03-17T04:31:36.160Z,101007.50
2023-03-17T04:34:02.822Z,101002.06
2023-03-17T04:36:29.504Z,101013.22
2023-03-17T04:38:56.123Z,101012.13
2023-03-17T04:41:22.843Z,101007.81
2023-03-17T04:43:49.436Z,101004.72
2023-03-17T04:46:16.425Z,101004.28
2023-03-17T04:48:43.167Z,100990.09
2023-03-17T04:51:11.645Z,100998.84
2023-03-17T04:53:38.524Z,101003.41
2023-03-17T04:56:05.676Z,101007.88
2023-03-17T04:58:32.223Z,100992.63
2023-03-17T05:00:59.114Z,100988.50
2023-03-17T05:03:27.804Z,100990.19
2023-03-17T05:05:55.563Z,100979.97
2023-03-17T05:08:22.428Z,100990.72
2023-03-17T05:10:49.093Z,100995.47
2023-03-17T05:13:16.057Z,100994.53
2023-03-17T05:15:50.657Z,100989.66
2023-03-17T05:18:18.288Z,100990.13
2023-03-17T05:20:45.166Z,101000.78
2023-03-17T05:23:12.304Z,101003.53
2023-03-17T05:25:40.121Z,101005.84
2023-03-17T05:28:07.757Z,100985.25
2023-03-17T05:30:36.767Z,100992.00
2023-03-17T05:33:03.962Z,100999.38
2023-03-17T05:35:30.636Z,100978.03
2023-03-17T05:37:57.239Z,100998.84
2023-03-17T05:40:24.029Z,100995.97
2023-03-17T05:42:51.582Z,101005.81
2023-03-17T05:45:18.707Z,100999.84
2023-03-17T05:47:45.855Z,100996.38
2023-03-17T05:50:13.022Z,101004.34
2023-03-17T05:52:39.761Z,101002.81
2023-03-17T05:55:07.837Z,101013.03
2023-03-17T05:57:34.812Z,101005.16
2023-03-17T06:00:01.418Z,101004.16
2023-03-17T06:02:28.070Z,101003.41
2023-03-17T06:04:54.634Z,101001.31
2023-03-17T06:07:21.523Z,100993.78
2023-03-17T06:09:48.384Z,100986.56
2023-03-17T06:12:14.946Z,100989.09
2023-03-17T06:14:41.667Z,100981.75
2023-03-17T06:17:08.409Z,100974.56
2023-03-17T06:19:35.031Z,100992.41
2023-03-17T06:22:01.937Z,100986.41
2023-03-17T06:24:28.554Z,100980.53
2023-03-17T06:26:55.156Z,100992.31
2023-03-17T06:29:22.691Z,100981.50
2023-03-17T06:31:51.330Z,100985.09
2023-03-17T06:34:19.341Z,100973.91
2023-03-17T06:36:45.988Z,100991.41
2023-03-17T06:39:13.581Z,100994.44
2023-03-17T06:41:40.681Z,100992.22
2023-03-17T06:44:08.626Z,100986.81
2023-03-17T06:46:35.959Z,100982.03
2023-03-17T06:49:03.557Z,100986.63
2023-03-17T06:51:31.232Z,100973.53
2023-03-17T06:53:57.851Z,100974.50
2023-03-17T06:56:30.064Z,100979.06
2023-03-17T06:58:57.946Z,100982.47
2023-03-17T07:01:26.189Z,100982.50
2023-03-17T07:03:53.515Z,100971.03
2023-03-17T07:06:20.088Z,100961.19
2023-03-17T07:08:47.608Z,100962.59
2023-03-17T07:11:14.733Z,100948.38
2023-03-17T07:13:41.417Z,100947.53
2023-03-17T07:16:08.302Z,100949.00
2023-03-17T07:18:34.989Z,100962.63
2023-03-17T07:21:02.280Z,100976.63
2023-03-17T07:23:29.635Z,100961.56
2023-03-17T07:25:57.545Z,100943.72
2023-03-17T07:28:24.726Z,100927.56
2023-03-17T07:30:51.700Z,100949.00
2023-03-17T07:33:22.730Z,100953.50
2023-03-17T07:35:49.928Z,100928.16
2023-03-17T07:38:18.568Z,100920.94
2023-03-17T07:40:48.345Z,100937.06
2023-03-17T07:43:16.800Z,100938.72
2023-03-17T07:45:44.380Z,100946.59
2023-03-17T07:48:11.501Z,100946.00
2023-03-17T07:50:42.521Z,100941.72
2023-03-17T07:53:09.413Z,100942.88
2023-03-17T07:55:38.319Z,100952.63
2023-03-17T07:58:05.762Z,100954.50
2023-03-17T08:00:32.858Z,100946.19
2023-03-17T08:03:09.781Z,100954.84
2023-03-17T08:05:37.645Z,100954.31
2023-03-17T08:08:06.328Z,100963.88
2023-03-17T08:10:33.848Z,100968.66
2023-03-17T08:13:00.872Z,100955.75
2023-03-17T08:15:27.708Z,100959.75
2023-03-17T08:17:54.463Z,100950.50
2023-03-17T08:20:21.905Z,100937.91
2023-03-17T08:22:48.789Z,100937.44
2023-03-17T08:25:15.773Z,100934.91
2023-03-17T08:27:42.784Z,100949.88
2023-03-17T08:30:10.417Z,100951.84
2023-03-17T08:32:37.329Z,100950.44
2023-03-17T08:35:06.466Z,100945.59
2023-03-17T08:37:33.624Z,100944.28
2023-03-17T08:40:01.487Z,100945.03
2023-03-17T08:42:35.954Z,100940.41
2023-03-17T08:45:02.835Z,100918.06
2023-03-17T08:47:29.726Z,100916.47
2023-03-17T08:49:56.621Z,100914.84
2023-03-17T08:52:23.240Z,100916.78
2023-03-17T08:54:49.891Z,100918.34
2023-03-17T08:57:17.315Z,100917.94
2023-03-17T08:59:44.038Z,100915.22
2023-03-17T09:02:14.951Z,100901.59
2023-03-17T09:04:41.638Z,100900.13
2023-03-17T09:07:10.370Z,100905.38
2023-03-17T09:09:37.632Z,100889.22
2023-03-17T09:12:06.366Z,100904.81
2023-03-17T09:14:42.765Z,100892.16
2023-03-17T09:17:11.229Z,100888.84
2023-03-17T09:19:38.925Z,100890.31
2023-03-17T09:22:05.772Z,100898.72
2023-03-17T09:24:32.468Z,100890.50
2023-03-17T09:27:01.404Z,100895.72
2023-03-17T09:29:28.158Z,100886.47
2023-03-17T09:31:57.285Z,100893.06
2023-03-17T09:34:25.229Z,100887.38
2023-03-17T09:36:53.973Z,100884.78
2023-03-17T09:39:24.129Z,100880.75
2023-03-17T09:42:23.518Z,100883.56
2023-03-17T09:44:59.365Z,100891.38
2023-03-17T09:47:32.314Z,100892.28
2023-03-17T09:50:03.124Z,100884.94
2023-03-17T09:52:32.636Z,100884.16
2023-03-17T09:55:01.264Z,100884.88
2023-03-17T09:57:39.399Z,100876.84
2023-03-17T10:00:15.069Z,100865.91
2023-03-17T10:02:43.242Z,100866.25
2023-03-17T10:05:31.963Z,100869.81
2023-03-17T10:08:29.515Z,100878.47
2023-03-17T10:11:32.728Z,100879.50
2023-03-17T10:14:09.476Z,100873.00
2023-03-17T10:17:11.542Z,100865.28
2023-03-17T10:19:43.089Z,100871.06
2023-03-17T10:22:25.918Z,100878.41
2023-03-17T10:24:57.833Z,100878.50
2023-03-17T10:27:24.963Z,100869.06
2023-03-17T10:29:51.698Z,100868.78
2023-03-17T10:32:21.630Z,100871.47
2023-03-17T10:34:48.844Z,100872.41
2023-03-17T10:37:21.386Z,100861.53
2023-03-17T10:39:53.164Z,100864.63
2023-03-17T10:42:29.165Z,100861.03
2023-03-17T10:45:15.582Z,100849.97
2023-03-17T10:47:48.450Z,100843.03
2023-03-17T10:50:21.161Z,100840.69
2023-03-17T10:52:53.564Z,100839.41
2023-03-17T10:55:23.449Z,100844.91
2023-03-17T10:58:01.197Z,100842.28
2023-03-17T11:00:33.761Z,100838.53
2023-03-17T11:03:10.161Z,100840.59
2023-03-17T11:05:38.949Z,100829.38
2023-03-17T11:08:19.038Z,100831.06
2023-03-17T11:10:45.867Z,100823.09
2023-03-17T11:13:18.723Z,100813.41
2023-03-17T11:15:52.682Z,100820.81
2023-03-17T11:18:23.746Z,100813.13
2023-03-17T11:20:53.314Z,100822.25
2023-03-17T11:23:38.675Z,100821.28
2023-03-17T11:26:28.873Z,100818.97
2023-03-17T11:29:21.555Z,100810.56
2023-03-17T11:32:20.251Z,100807.88
2023-03-17T11:35:14.202Z,100804.44
2023-03-17T11:37:58.861Z,100805.16
2023-03-17T11:40:40.439Z,100808.34
2023-03-17T11:43:07.002Z,100819.28
2023-03-17T11:45:51.941Z,100806.75
2023-03-17T11:48:30.699Z,100796.75
2023-03-17T11:51:15.968Z,100802.91
2023-03-17T11:54:10.942Z,100802.31
2023-03-17T11:56:43.133Z,100798.81
2023-03-17T11:59:16.664Z,100784.47
2023-03-17T12:02:08.689Z,100784.78
2023-03-17T12:04:50.773Z,100790.97
2023-03-17T12:07:22.854Z,100794.22
2023-03-17T12:10:28.739Z,100792.50
2023-03-17T12:13:02.230Z,100783.03
2023-03-17T12:15:36.503Z,100787.47
2023-03-17T12:18:12.310Z,100787.34
2023-03-17T12:20:42.276Z,100776.09
2023-03-17T12:23:38.795Z,100776.84
2023-03-17T12:26:12.387Z,100781.81
2023-03-17T12:28:48.538Z,100776.81
2023-03-17T12:31:26.994Z,100776.06
2023-03-17T12:34:25.191Z,100767.38
2023-03-17T12:36:52.911Z,100761.44
2023-03-17T12:39:28.166Z,100753.03
2023-03-17T12:42:30.178Z,100751.16
2023-03-17T12:45:15.858Z,100741.38
2023-03-17T12:47:48.348Z,100740.44
2023-03-17T12:50:17.963Z,100729.31
2023-03-17T12:53:02.848Z,100736.16
2023-03-17T12:55:32.549Z,100734.34
2023-03-17T12:58:05.482Z,100733.72
2023-03-17T13:00:34.572Z,100728.53
2023-03-17T13:03:30.478Z,100737.06
2023-03-17T13:06:03.135Z,100737.84
2023-03-17T13:08:34.027Z,100736.88
2023-03-17T13:11:18.889Z,100721.06
2023-03-17T13:13:54.753Z,100725.66
2023-03-17T13:16:29.357Z,100732.47
2023-03-17T13:19:23.368Z,100729.50
2023-03-17T13:21:58.074Z,100724.56
2023-03-17T13:24:50.216Z,100724.81
2023-03-17T13:27:31.893Z,100715.16
2023-03-17T13:30:01.167Z,100716.94
2023-03-17T13:32:27.739Z,100718.50
2023-03-17T13:35:15.827Z,100714.59
2023-03-17T13:37:51.328Z,100711.44
2023-03-17T13:40:25.469Z,100704.97
2023-03-17T13:43:03.985Z,100713.91
2023-03-17T13:45:41.519Z,100717.84
2023-03-17T13:48:30.145Z,100727.84
2023-03-17T13:51:01.535Z,100721.59
2023-03-17T13:53:35.219Z,100718.78
2023-03-17T13:56:46.918Z,100727.69
2023-03-17T13:59:57.730Z,100729.16
2023-03-17T14:02:29.007Z,100737.44
2023-03-17T14:05:19.063Z,100724.75
2023-03-17T14:07:56.787Z,100721.56
2023-03-17T14:10:26.625Z,100717.09
2023-03-17T14:13:11.487Z,100722.34
2023-03-17T14:15:48.635Z,100710.66
2023-03-17T14:18:17.842Z,100688.59
2023-03-17T14:21:24.412Z,100698.06
2023-03-17T14:23:57.779Z,100692.50
2023-03-17T14:26:27.381Z,100692.75
2023-03-17T14:28:54.291Z,100689.97
2023-03-17T14:31:27.362Z,100678.66
2023-03-17T14:34:01.338Z,100675.50
2023-03-17T14:36:32.311Z,100653.56
2023-03-17T14:38:59.035Z,100654.84
2023-03-17T14:41:27.818Z,100661.13
2023-03-17T14:43:59.341Z,100657.53
2023-03-17T14:46:34.488Z,100658.03
2023-03-17T14:49:16.781Z,100648.00
2023-03-17T14:51:43.549Z,100648.09
2023-03-17T14:54:17.786Z,100646.78
2023-03-17T14:56:48.649Z,100649.78
2023-03-17T14:59:26.957Z,100636.81
2023-03-17T15:01:56.505Z,100629.06
2023-03-17T15:04:29.124Z,100640.88
2023-03-17T15:06:59.905Z,100635.25
2023-03-17T15:09:36.297Z,100626.44
2023-03-17T15:12:23.244Z,100620.66
2023-03-17T15:14:53.845Z,100623.75
2023-03-17T15:17:23.317Z,100625.97
2023-03-17T15:19:52.683Z,100619.13
2023-03-17T15:22:34.468Z,100616.34
2023-03-17T15:25:16.476Z,100611.28
2023-03-17T15:27:44.267Z,100613.59
2023-03-17T15:30:12.305Z,100614.56
2023-03-17T15:32:39.726Z,100615.44
2023-03-17T15:35:07.904Z,100607.03
2023-03-17T15:37:35.522Z,100599.28
2023-03-17T15:40:03.458Z,100590.78
2023-03-17T15:42:35.790Z,100597.28
2023-03-17T15:45:03.877Z,100591.78
2023-03-17T15:47:37.053Z,100596.81
2023-03-17T15:50:14.800Z,100601.31
2023-03-17T15:52:42.144Z,100595.69
2023-03-17T15:55:35.181Z,100600.72
2023-03-17T15:58:01.892Z,100603.22
2023-03-17T16:00:30.068Z,100603.25
2023-03-17T16:03:02.177Z,100608.06
2023-03-17T16:05:34.217Z,100599.22
2023-03-17T16:08:00.796Z,100601.97
2023-03-17T16:10:29.930Z,100602.44
2023-03-17T16:12:57.279Z,100610.06
2023-03-17T16:15:31.228Z,100599.44
2023-03-17T16:18:01.650Z,100600.50
2023-03-17T16:20:33.954Z,100600.28
2023-03-17T16:23:07.611Z,100596.81
2023-03-17T16:25:34.330Z,100599.09
2023-03-17T16:28:03.079Z,100594.69
2023-03-17T16:30:32.911Z,100597.66
2023-03-17T16:33:02.374Z,100591.69
2023-03-17T16:35:29.443Z,100600.63
2023-03-17T16:37:56.369Z,100597.75
2023-03-17T16:40:35.609Z,100599.91
2023-03-17T16:43:12.889Z,100598.97
2023-03-17T16:45:42.442Z,100595.28
2023-03-17T16:48:14.794Z,100595.16
2023-03-17T16:50:42.386Z,100592.09
2023-03-17T16:53:09.702Z,100594.34
2023-03-17T16:55:37.481Z,100597.75
2023-03-17T16:58:14.071Z,100589.78
2023-03-17T17:00:40.810Z,100594.13
2023-03-17T17:03:07.430Z,100592.84
2023-03-17T17:05:34.042Z,100598.66
2023-03-17T17:08:00.876Z,100581.97
2023-03-17T17:10:30.316Z,100589.97
2023-03-17T17:12:57.129Z,100589.41
2023-03-17T17:15:24.340Z,100598.47
2023-03-17T17:17:55.459Z,100602.88
2023-03-17T17:20:25.234Z,100596.50
2023-03-17T17:22:52.099Z,100594.44
2023-03-17T17:25:18.713Z,100589.84
2023-03-17T17:27:46.243Z,100597.06
2023-03-17T17:30:16.190Z,100594.56
2023-03-17T17:32:42.893Z,100597.19
2023-03-17T17:35:09.911Z,100595.81
2023-03-17T17:37:36.714Z,100592.50
2023-03-17T17:40:04.367Z,100600.41
2023-03-17T17:42:30.970Z,100602.09
2023-03-17T17:44:57.772Z,100601.75
2023-03-17T17:47:24.372Z,100602.28
2023-03-17T17:49:51.328Z,100598.50
2023-03-17T17:52:18.538Z,100601.56
2023-03-17T17:54:45.319Z,100603.03
2023-03-17T17:57:12.751Z,100604.06
2023-03-17T17:59:39.487Z,100599.28
2023-03-17T18:02:06.688Z,100598.84
2023-03-17T18:04:33.473Z,100598.84
2023-03-17T18:07:00.048Z,100600.50
2023-03-17T18:09:26.681Z,100607.72
2023-03-17T18:11:53.489Z,100597.06
2023-03-17T18:14:20.082Z,100597.78
2023-03-17T18:16:47.182Z,100583.22
2023-03-17T18:19:14.265Z,100587.50
2023-03-17T18:21:40.865Z,100586.63
2023-03-17T18:24:09.107Z,100597.00
2023-03-17T18:26:35.821Z,100593.03
2023-03-17T18:29:02.466Z,100594.19
2023-03-17T18:31:34.871Z,100583.81
2023-03-17T18:34:08.912Z,100591.78
2023-03-17T18:36:35.774Z,100582.38
2023-03-17T18:39:02.402Z,100583.75
2023-03-17T18:41:29.062Z,100580.09
2023-03-17T18:43:55.679Z,100577.03
2023-03-17T18:46:22.875Z,100576.31
2023-03-17T18:48:49.560Z,100574.53
2023-03-17T18:51:16.202Z,100573.91
2023-03-17T18:53:43.135Z,100573.25
2023-03-17T18:56:09.779Z,100571.63
2023-03-17T18:58:36.677Z,100554.56
2023-03-17T19:01:03.370Z,100553.06
2023-03-17T19:03:32.221Z,100555.69
2023-03-17T19:06:08.916Z,100540.63
2023-03-17T19:08:35.801Z,100538.19
2023-03-17T19:11:05.471Z,100547.75
2023-03-17T19:13:32.137Z,100550.69
2023-03-17T19:15:58.788Z,100555.38
2023-03-17T19:18:25.404Z,100556.22
2023-03-17T19:20:52.625Z,100562.59
2023-03-17T19:23:20.128Z,100557.38
2023-03-17T19:25:46.766Z,100572.75
2023-03-17T19:28:13.397Z,100560.47
2023-03-17T19:30:40.113Z,100560.78
2023-03-17T19:33:08.081Z,100570.00
2023-03-17T19:35:34.752Z,100563.69
2023-03-17T19:38:01.450Z,100564.97
2023-03-17T19:40:28.289Z,100560.97
2023-03-17T19:42:56.112Z,100562.53
2023-03-17T19:45:24.467Z,100561.28
2023-03-17T19:47:51.162Z,100561.28
2023-03-17T19:50:17.799Z,100558.19
2023-03-17T19:52:46.000Z,100561.16
2023-03-17T19:55:12.737Z,100560.06
2023-03-17T19:57:39.381Z,100565.72
2023-03-17T20:00:08.929Z,100564.63
2023-03-17T20:02:35.773Z,100571.84
2023-03-17T20:05:02.388Z,100570.84
2023-03-17T20:07:29.047Z,100566.00
2023-03-17T20:09:55.813Z,100570.22
2023-03-17T20:12:22.463Z,100576.09
2023-03-17T20:14:49.219Z,100581.53
2023-03-17T20:17:17.365Z,100578.16
2023-03-17T20:19:44.379Z,100572.44
2023-03-17T20:22:11.616Z,100569.38
2023-03-17T20:24:38.304Z,100579.41
2023-03-17T20:27:06.893Z,100579.09
2023-03-17T20:29:33.761Z,100579.78
2023-03-17T20:32:00.934Z,100570.13
2023-03-17T20:34:27.640Z,100578.97
2023-03-17T20:36:54.594Z,100568.84
2023-03-17T20:39:21.542Z,100565.41
2023-03-17T20:41:49.853Z,100565.41
2023-03-17T20:44:17.422Z,100557.66
2023-03-17T20:46:44.734Z,100558.47
2023-03-17T20:49:12.314Z,100565.94
2023-03-17T20:51:40.434Z,100560.25
2023-03-17T20:54:08.704Z,100561.00
2023-03-17T20:56:36.556Z,100560.13
2023-03-17T20:59:05.181Z,100561.97
2023-03-17T21:01:33.555Z,100556.78
2023-03-17T21:04:00.657Z,100561.66
2023-03-17T21:06:31.481Z,100562.31
2023-03-17T21:08:58.641Z,100566.22
2023-03-17T21:11:26.794Z,100560.13
2023-03-17T21:13:53.900Z,100567.91
2023-03-17T21:16:24.013Z,100563.22
2023-03-17T21:18:51.492Z,100555.84
2023-03-17T21:21:18.929Z,100553.13
2023-03-17T21:23:46.300Z,100554.53
2023-03-17T21:26:14.627Z,100557.34
2023-03-17T21:28:42.476Z,100559.09
2023-03-17T21:31:10.857Z,100550.44
2023-03-17T21:33:38.343Z,100555.72
2023-03-17T21:36:06.034Z,100554.69
2023-03-17T21:38:32.742Z,100560.84
2023-03-17T21:41:19.034Z,100555.97
2023-03-17T21:43:46.598Z,100557.78
2023-03-17T21:46:14.490Z,100555.97
2023-03-17T21:48:41.171Z,100551.47
2023-03-17T21:51:08.627Z,100552.34
2023-03-17T21:53:35.227Z,100547.47
2023-03-17T21:56:01.797Z,100544.94
2023-03-17T21:58:28.400Z,100545.03
2023-03-17T22:00:55.045Z,100538.28
2023-03-17T22:03:22.417Z,100536.41
2023-03-17T22:05:50.880Z,100535.56
2023-03-17T22:08:18.360Z,100541.00
2023-03-17T22:10:45.082Z,100537.78
2023-03-17T22:13:12.848Z,100537.75
2023-03-17T22:15:39.448Z,100532.78
2023-03-17T22:18:06.161Z,100540.63
2023-03-17T22:20:33.135Z,100546.94
2023-03-17T22:22:59.982Z,100540.59
2023-03-17T22:25:26.660Z,100535.19
2023-03-17T22:27:53.756Z,100535.63
2023-03-17T22:30:20.501Z,100538.41
2023-03-17T22:32:47.255Z,100534.22
2023-03-17T22:35:13.926Z,100531.28
2023-03-17T22:37:41.552Z,100532.13
2023-03-17T22:40:10.205Z,100535.25
2023-03-17T22:42:36.922Z,100521.47
2023-03-17T22:45:04.613Z,100525.44
2023-03-17T22:47:31.270Z,100523.41
2023-03-17T22:49:57.913Z,100523.09
2023-03-17T22:52:24.620Z,100516.44
2023-03-17T22:54:51.202Z,100526.03
2023-03-17T22:57:17.847Z,100526.03
2023-03-17T22:59:44.437Z,100528.69
2023-03-17T23:02:11.501Z,100521.84
2023-03-17T23:04:38.146Z,100518.78
2023-03-17T23:07:05.522Z,100528.44
2023-03-17T23:09:32.787Z,100523.31
2023-03-17T23:12:00.668Z,100520.03
2023-03-17T23:14:27.365Z,100524.06
2023-03-17T23:16:53.981Z,100520.53
2023-03-17T23:19:21.165Z,100516.78
2023-03-17T23:21:47.763Z,100516.69
2023-03-17T23:24:14.345Z,100506.03
2023-03-17T23:26:40.965Z,100512.94
2023-03-17T23:29:09.199Z,100509.66
2023-03-17T23:31:37.130Z,100506.34
2023-03-17T23:34:06.621Z,100510.44
2023-03-17T23:36:35.071Z,100509.94
2023-03-17T23:39:02.279Z,100510.69
2023-03-17T23:41:28.864Z,100505.38
2023-03-17T23:43:55.497Z,100508.50
2023-03-17T23:46:22.143Z,100511.56
2023-03-17T23:48:49.408Z,100513.91
2023-03-17T23:51:17.044Z,100513.63
2023-03-17T23:53:45.799Z,100506.69
2023-03-17T23:56:13.138Z,100511.50
2023-03-17T23:58:42.504Z,100503.28
